Time;durP1;ratioP1;P1;durP2;ratioP2;P2;SDS_P1;SDS_P2;PMS_P1;PMS_P2;Temp;Humidity;BMP_temperature;BMP_pressure;BME280_temperature;BME280_humidity;BME280_pressure;Samples;Min_cycle;Max_cycle;Signal;HPM_P1;HPM_P2
2023/12/27 00:01:02;;;;;;;5.70;2.70;;;;;;;8.27;100.00;99379.23;105616;1258;61707;-54
2023/12/27 00:03:30;;;;;;;4.80;2.70;;;;;;;8.27;100.00;99381.55;105598;1252;60485;-55
2023/12/27 00:05:58;;;;;;;5.30;2.90;;;;;;;8.28;100.00;99384.59;105642;1257;74507;-53
2023/12/27 00:08:26;;;;;;;6.30;2.30;;;;;;;8.30;100.00;99385.23;105655;1257;65744;-55
2023/12/27 00:10:54;;;;;;;5.00;2.70;;;;;;;8.33;100.00;99388.42;105572;1254;71463;-55
2023/12/27 00:13:22;;;;;;;6.00;2.60;;;;;;;8.37;100.00;99393.41;105841;1257;61667;-53
2023/12/27 00:15:50;;;;;;;7.10;2.80;;;;;;;8.41;100.00;99394.14;105663;1254;59200;-53
2023/12/27 00:18:18;;;;;;;6.70;3.20;;;;;;;8.43;100.00;99387.23;105535;1257;74353;-53
2023/12/27 00:20:47;;;;;;;5.50;2.80;;;;;;;8.45;100.00;99384.73;105637;1260;67428;-54
2023/12/27 00:23:15;;;;;;;6.30;3.10;;;;;;;8.47;100.00;99385.50;105611;1255;71562;-55
2023/12/27 00:25:43;;;;;;;4.90;2.80;;;;;;;8.48;100.00;99388.67;105643;1257;61668;-55
2023/12/27 00:28:11;;;;;;;6.90;3.50;;;;;;;8.50;100.00;99388.45;105638;1254;60228;-53
2023/12/27 00:30:39;;;;;;;6.30;2.90;;;;;;;8.50;100.00;99381.57;105662;1257;72555;-53
2023/12/27 00:33:07;;;;;;;5.30;2.90;;;;;;;8.48;100.00;99386.02;105628;1257;67274;-55
2023/12/27 00:35:35;;;;;;;8.30;4.10;;;;;;;8.46;100.00;99389.27;105790;1255;70750;-56
2023/12/27 00:38:03;;;;;;;6.00;3.30;;;;;;;8.45;100.00;99390.45;105350;1254;61777;-55
2023/12/27 00:40:30;;;;;;;6.70;3.30;;;;;;;8.44;100.00;99396.35;105503;1252;61159;-55
2023/12/27 00:42:58;;;;;;;6.30;3.30;;;;;;;8.42;100.00;99398.50;105699;1254;72842;-55
2023/12/27 00:45:26;;;;;;;6.80;3.00;;;;;;;8.41;100.00;99397.70;105683;1257;65634;-58
2023/12/27 00:47:53;;;;;;;7.40;3.40;;;;;;;8.41;100.00;99398.61;105319;1254;73203;-56
2023/12/27 00:50:22;;;;;;;5.20;3.10;;;;;;;8.39;100.00;99402.27;105588;1260;60601;-55
2023/12/27 00:52:49;;;;;;;5.10;2.90;;;;;;;8.38;100.00;99402.14;105690;1252;60450;-56
2023/12/27 00:55:17;;;;;;;7.40;3.80;;;;;;;8.36;100.00;99405.97;105376;1253;72702;-55
2023/12/27 00:57:45;;;;;;;5.80;3.00;;;;;;;8.36;100.00;99409.52;105826;1257;66906;-57
2023/12/27 01:00:14;;;;;;;7.60;3.40;;;;;;;8.37;100.00;99410.20;105688;1254;72712;-53
2023/12/27 01:02:42;;;;;;;7.20;3.60;;;;;;;8.36;100.00;99402.45;105631;1255;61709;-55
2023/12/27 01:05:09;;;;;;;5.20;2.90;;;;;;;8.37;100.00;99401.91;105708;1254;60543;-53
2023/12/27 01:07:37;;;;;;;6.10;3.10;;;;;;;8.37;100.00;99396.84;105468;1255;72861;-55
2023/12/27 01:10:05;;;;;;;5.20;2.90;;;;;;;8.39;100.00;99394.00;105331;1257;65719;-53
2023/12/27 01:12:33;;;;;;;5.80;3.10;;;;;;;8.35;100.00;99388.05;105767;1257;72708;-53
2023/12/27 01:15:01;;;;;;;5.80;3.10;;;;;;;8.34;100.00;99389.04;105551;1257;61804;-56
2023/12/27 01:17:29;;;;;;;5.80;3.30;;;;;;;8.38;100.00;99386.02;105639;1254;60303;-54
2023/12/27 01:19:57;;;;;;;8.20;3.30;;;;;;;8.37;100.00;99381.09;105710;1260;73957;-55
2023/12/27 01:22:25;;;;;;;7.40;3.60;;;;;;;8.34;100.00;99384.00;105267;1257;66929;-54
2023/12/27 01:24:53;;;;;;;6.80;3.30;;;;;;;8.31;100.00;99386.77;105671;1257;72725;-56
2023/12/27 01:27:20;;;;;;;7.90;3.30;;;;;;;8.29;100.00;99386.48;105466;1259;60401;-54
2023/12/27 01:29:48;;;;;;;7.80;3.20;;;;;;;8.27;100.00;99387.42;105982;1254;60539;-54
2023/12/27 01:32:16;;;;;;;6.70;3.50;;;;;;;8.26;100.00;99382.72;105593;1257;74440;-54
2023/12/27 01:34:43;;;;;;;7.40;3.80;;;;;;;8.25;100.00;99384.89;105435;1259;65721;-54
2023/12/27 01:37:12;;;;;;;7.90;4.10;;;;;;;8.25;100.00;99379.25;105898;1254;72699;-57
2023/12/27 01:39:39;;;;;;;6.30;3.60;;;;;;;8.25;100.00;99379.45;105678;1252;60549;-55
2023/12/27 01:42:07;;;;;;;5.90;3.50;;;;;;;8.25;100.00;99382.88;105792;1253;60519;-57
2023/12/27 01:44:35;;;;;;;7.30;4.00;;;;;;;8.25;100.00;99388.34;105637;1254;72966;-55
2023/12/27 01:47:03;;;;;;;5.60;3.50;;;;;;;8.28;100.00;99385.27;105738;1254;64896;-55
2023/12/27 01:49:31;;;;;;;6.70;3.70;;;;;;;8.29;100.00;99382.20;105592;1254;71764;-53
2023/12/27 01:51:59;;;;;;;8.00;4.10;;;;;;;8.30;100.00;99382.42;105720;1255;61739;-55
2023/12/27 01:54:27;;;;;;;7.50;3.40;;;;;;;8.29;100.00;99392.34;105255;1254;60636;-55
2023/12/27 01:56:54;;;;;;;7.10;3.60;;;;;;;8.29;100.00;99394.70;105537;1252;73842;-55
2023/12/27 01:59:23;;;;;;;8.10;3.50;;;;;;;8.28;100.00;99391.70;105529;1257;66935;-55
2023/12/27 02:01:50;;;;;;;6.70;3.60;;;;;;;8.28;100.00;99395.49;105675;1257;72707;-54
2023/12/27 02:04:18;;;;;;;8.00;4.10;;;;;;;8.28;100.00;99400.29;105618;1255;62157;-55
2023/12/27 02:06:47;;;;;;;6.00;3.90;;;;;;;8.28;100.00;99402.77;105771;1254;60474;-56
2023/12/27 02:09:15;;;;;;;8.10;3.80;;;;;;;8.29;100.00;99405.40;105505;1254;72558;-54
2023/12/27 02:11:45;;;;;;;7.30;3.90;;;;;;;8.30;100.00;99403.06;105576;1254;69993;-56
2023/12/27 02:14:13;;;;;;;6.20;3.20;;;;;;;8.31;100.00;99406.79;105593;1254;72734;-56
2023/12/27 02:16:40;;;;;;;5.70;3.20;;;;;;;8.32;100.00;99408.19;105409;1254;61826;-54
2023/12/27 02:19:08;;;;;;;6.20;3.70;;;;;;;8.33;100.00;99409.71;105639;1252;60443;-55
2023/12/27 02:21:36;;;;;;;6.70;3.40;;;;;;;8.36;100.00;99409.22;105572;1257;72213;-53
2023/12/27 02:24:04;;;;;;;6.30;3.20;;;;;;;8.38;100.00;99412.58;105749;1257;65637;-55
2023/12/27 02:32:37;;;;;;;6.30;3.20;;;;;;;8.48;100.00;99421.72;102240;1297;600361;-53
2023/12/27 02:35:06;;;;;;;7.60;3.70;;;;;;;8.47;100.00;99413.76;105260;1263;59347;-55
2023/12/27 02:37:34;;;;;;;6.90;3.70;;;;;;;8.48;100.00;99413.05;105303;1261;60522;-54
2023/12/27 02:47:45;;;;;;;5.20;3.50;;;;;;;8.65;100.00;99408.79;102313;1295;601844;-56
2023/12/27 02:50:13;;;;;;;6.40;3.50;;;;;;;8.64;100.00;99415.19;104747;1272;60436;-53
2023/12/27 02:52:40;;;;;;;7.80;4.10;;;;;;;8.63;100.00;99408.98;104963;1265;59341;-54
2023/12/27 02:55:08;;;;;;;6.20;3.50;;;;;;;8.67;100.00;99414.73;105182;1260;71004;-53
2023/12/27 02:57:36;;;;;;;6.60;3.70;;;;;;;8.68;100.00;99412.38;105253;1263;66779;-55
2023/12/27 03:00:05;;;;;;;6.60;3.70;;;;;;;8.69;100.00;99418.54;104939;1266;72704;-54
2023/12/27 03:02:33;;;;;;;7.30;3.60;;;;;;;8.70;100.00;99418.41;108681;1257;193084;-54
2023/12/27 03:05:02;;;;;;;7.30;3.80;;;;;;;8.69;100.00;99418.33;108939;1258;59217;-54
2023/12/27 03:07:30;;;;;;;6.30;3.30;;;;;;;8.69;100.00;99412.94;108964;1259;72362;-54
2023/12/27 03:09:57;;;;;;;6.80;3.60;;;;;;;8.69;100.00;99416.09;109004;1258;66983;-54
2023/12/27 03:12:25;;;;;;;6.60;3.60;;;;;;;8.70;100.00;99412.61;108980;1257;72678;-54
2023/12/27 03:14:52;;;;;;;7.50;4.00;;;;;;;8.69;100.00;99419.52;108946;1257;60369;-55
2023/12/27 03:17:20;;;;;;;6.70;3.70;;;;;;;8.65;100.00;99421.98;108982;1258;60185;-54
2023/12/27 03:19:48;;;;;;;5.40;3.40;;;;;;;8.62;100.00;99426.95;108933;1262;71921;-55
2023/12/27 03:22:15;;;;;;;5.10;3.30;;;;;;;8.61;100.00;99416.89;108970;1259;66808;-54
2023/12/27 03:24:43;;;;;;;5.60;3.10;;;;;;;8.61;100.00;99422.96;108819;1257;72720;-54
2023/12/27 03:27:11;;;;;;;6.40;3.40;;;;;;;8.56;100.00;99427.08;108850;1257;61729;-54
2023/12/27 03:29:38;;;;;;;5.80;3.10;;;;;;;8.52;100.00;99429.25;108907;1259;60255;-56
2023/12/27 03:32:07;;;;;;;8.30;3.40;;;;;;;8.50;100.00;99425.24;108928;1257;73080;-54
2023/12/27 03:34:35;;;;;;;6.50;3.00;;;;;;;8.46;100.00;99422.35;108960;1259;65635;-55
2023/12/27 03:37:04;;;;;;;7.90;3.70;;;;;;;8.41;100.00;99419.31;108891;1260;72774;-55
2023/12/27 03:39:32;;;;;;;6.00;3.20;;;;;;;8.35;100.00;99416.45;108922;1257;60439;-56
2023/12/27 03:42:01;;;;;;;7.20;3.80;;;;;;;8.31;100.00;99418.48;108965;1262;59350;-55
2023/12/27 03:44:30;;;;;;;6.30;3.70;;;;;;;8.28;100.00;99420.94;109047;1257;73612;-55
2023/12/27 03:46:57;;;;;;;8.30;3.80;;;;;;;8.24;100.00;99423.63;109070;1257;66372;-55
2023/12/27 03:49:25;;;;;;;6.50;3.50;;;;;;;8.19;100.00;99426.52;109053;1257;72763;-55
2023/12/27 03:51:53;;;;;;;9.60;4.00;;;;;;;8.18;100.00;99427.24;109000;1256;61409;-55
2023/12/27 03:54:21;;;;;;;6.50;3.70;;;;;;;8.16;100.00;99429.16;109038;1259;58810;-54
2023/12/27 03:56:48;;;;;;;6.40;3.70;;;;;;;8.17;100.00;99430.39;109076;1256;73046;-54
2023/12/27 03:59:16;;;;;;;6.50;3.70;;;;;;;8.18;100.00;99432.40;109045;1257;65960;-54
2023/12/27 04:01:44;;;;;;;8.40;4.00;;;;;;;8.19;100.00;99432.14;109081;1257;72782;-54
2023/12/27 04:04:13;;;;;;;7.10;4.00;;;;;;;8.20;100.00;99437.38;108838;1258;61925;-55
2023/12/27 04:06:41;;;;;;;7.00;4.00;;;;;;;8.20;100.00;99438.81;108916;1257;58835;-55
2023/12/27 04:09:09;;;;;;;8.80;4.00;;;;;;;8.17;100.00;99436.47;108975;1260;73059;-54
2023/12/27 04:11:44;;;;;;;7.10;3.70;;;;;;;8.18;100.00;99438.05;109085;1258;66795;-54
2023/12/27 04:14:16;;;;;;;7.00;4.10;;;;;;;8.19;100.00;99440.73;108849;1257;72441;-55
2023/12/27 04:16:43;;;;;;;5.80;3.80;;;;;;;8.21;100.00;99441.40;109068;1257;60915;-55
2023/12/27 04:19:11;;;;;;;5.70;3.30;;;;;;;8.24;100.00;99443.59;108891;1257;58725;-55
2023/12/27 04:21:41;;;;;;;6.10;3.80;;;;;;;8.24;100.00;99444.80;108930;1257;70877;-54
2023/12/27 04:24:09;;;;;;;8.00;4.20;;;;;;;8.24;100.00;99448.71;108946;1257;67726;-54
2023/12/27 04:26:40;;;;;;;7.30;4.40;;;;;;;8.23;100.00;99449.19;108956;1257;72728;-55
2023/12/27 04:29:08;;;;;;;5.30;3.30;;;;;;;8.24;100.00;99450.51;108931;1258;61755;-54
2023/12/27 04:31:36;;;;;;;6.30;3.90;;;;;;;8.25;100.00;99447.43;108944;1258;61232;-54
2023/12/27 04:34:04;;;;;;;8.60;4.10;;;;;;;8.26;100.00;99446.17;108889;1258;73109;-56
2023/12/27 04:36:35;;;;;;;7.40;3.80;;;;;;;8.26;100.00;99444.57;108927;1260;66927;-55
2023/12/27 04:39:03;;;;;;;9.10;4.30;;;;;;;8.26;100.00;99445.77;109061;1257;71398;-54
2023/12/27 04:41:31;;;;;;;6.60;3.90;;;;;;;8.27;100.00;99444.27;108870;1258;61688;-55
2023/12/27 04:43:59;;;;;;;7.20;3.30;;;;;;;8.26;100.00;99443.86;109050;1257;58742;-55
2023/12/27 04:46:27;;;;;;;7.70;4.10;;;;;;;8.24;100.00;99442.00;108938;1257;72259;-54
2023/12/27 04:48:55;;;;;;;8.00;3.40;;;;;;;8.24;100.00;99443.03;109072;1257;66943;-55
2023/12/27 04:51:23;;;;;;;8.10;4.10;;;;;;;8.26;100.00;99445.81;109068;1258;71757;-54
2023/12/27 04:53:54;;;;;;;7.50;3.70;;;;;;;8.24;100.00;99444.23;108874;1258;60399;-56
2023/12/27 04:56:22;;;;;;;6.80;3.80;;;;;;;8.24;100.00;99443.01;108947;1259;58914;-55
2023/12/27 04:58:51;;;;;;;6.70;3.50;;;;;;;8.23;100.00;99441.40;109065;1257;73132;-55
2023/12/27 05:01:18;;;;;;;6.60;3.90;;;;;;;8.21;100.00;99442.17;109094;1259;66919;-55
2023/12/27 05:03:46;;;;;;;8.40;4.50;;;;;;;8.21;100.00;99443.28;108964;1258;72767;-55
2023/12/27 05:06:14;;;;;;;8.10;3.90;;;;;;;8.21;100.00;99444.28;108947;1257;61889;-55
2023/12/27 05:08:43;;;;;;;7.90;4.80;;;;;;;8.20;100.00;99447.73;108983;1257;60085;-55
2023/12/27 05:11:15;;;;;;;6.10;3.80;;;;;;;8.19;100.00;99443.20;109060;1257;71824;-54
2023/12/27 05:13:43;;;;;;;5.60;3.50;;;;;;;8.19;100.00;99440.45;109054;1258;65679;-54
2023/12/27 05:16:15;;;;;;;7.90;4.10;;;;;;;8.18;100.00;99441.34;108994;1261;72746;-55
2023/12/27 05:18:43;;;;;;;7.20;4.20;;;;;;;8.19;100.00;99450.83;109030;1257;60460;-55
2023/12/27 05:21:12;;;;;;;7.40;4.30;;;;;;;8.19;100.00;99456.66;109043;1257;58787;-54
2023/12/27 05:23:40;;;;;;;7.00;3.80;;;;;;;8.19;100.00;99453.59;109045;1257;71862;-55
2023/12/27 05:26:07;;;;;;;7.90;4.30;;;;;;;8.18;100.00;99453.34;109011;1257;66938;-56
2023/12/27 05:28:35;;;;;;;6.90;4.70;;;;;;;8.15;100.00;99456.42;108948;1258;72402;-55
2023/12/27 05:31:02;;;;;;;8.80;4.30;;;;;;;8.14;100.00;99460.88;109032;1257;60490;-55
2023/12/27 05:33:31;;;;;;;8.70;5.00;;;;;;;8.12;100.00;99459.44;109075;1256;58736;-55
2023/12/27 05:35:59;;;;;;;8.00;4.40;;;;;;;8.09;100.00;99460.56;109124;1256;72253;-55
2023/12/27 05:38:27;;;;;;;7.30;4.60;;;;;;;8.07;100.00;99464.86;109079;1256;67283;-55
2023/12/27 05:40:55;;;;;;;9.40;4.60;;;;;;;8.06;100.00;99466.36;109140;1256;72573;-55
2023/12/27 05:43:22;;;;;;;7.50;4.70;;;;;;;8.07;100.00;99464.92;109059;1256;62162;-54
2023/12/27 05:45:50;;;;;;;8.00;4.70;;;;;;;8.06;100.00;99460.83;109020;1257;60095;-54
2023/12/27 05:48:18;;;;;;;7.40;4.70;;;;;;;8.04;100.00;99467.39;109096;1256;71870;-54
2023/12/27 05:50:46;;;;;;;9.10;5.30;;;;;;;8.05;100.00;99468.20;109149;1257;65874;-55
2023/12/27 05:53:13;;;;;;;8.20;5.30;;;;;;;8.05;100.00;99468.88;109102;1257;72821;-55
2023/12/27 05:55:41;;;;;;;9.20;4.70;;;;;;;8.05;100.00;99471.88;109090;1257;58874;-55
2023/12/27 05:58:09;;;;;;;13.40;5.20;;;;;;;8.07;100.00;99475.40;109087;1256;58809;-55
2023/12/27 06:00:37;;;;;;;9.50;5.30;;;;;;;8.06;100.00;99479.83;109027;1256;71879;-54
2023/12/27 06:03:05;;;;;;;8.70;4.20;;;;;;;8.07;100.00;99478.42;109115;1256;67378;-55
2023/12/27 06:05:33;;;;;;;10.70;5.10;;;;;;;8.06;100.00;99480.90;109112;1256;71459;-54
2023/12/27 06:08:01;;;;;;;9.90;5.00;;;;;;;8.07;100.00;99476.48;109055;1257;60143;-55
2023/12/27 06:10:30;;;;;;;7.50;4.20;;;;;;;8.08;100.00;99473.62;109119;1256;59004;-54
2023/12/27 06:12:57;;;;;;;7.60;4.50;;;;;;;8.11;100.00;99472.77;109012;1256;73237;-55
2023/12/27 06:15:25;;;;;;;8.30;4.80;;;;;;;8.14;100.00;99471.31;109138;1259;67000;-54
2023/12/27 06:17:53;;;;;;;7.70;4.60;;;;;;;8.15;100.00;99472.10;109044;1257;72784;-57
2023/12/27 06:20:21;;;;;;;8.20;4.90;;;;;;;8.17;100.00;99474.81;109072;1257;60212;-54
2023/12/27 06:22:48;;;;;;;8.20;4.80;;;;;;;8.16;100.00;99474.33;109151;1257;60105;-55
2023/12/27 06:25:16;;;;;;;6.90;4.00;;;;;;;8.17;100.00;99483.08;109090;1258;71685;-55
2023/12/27 06:27:44;;;;;;;6.50;3.70;;;;;;;8.18;100.00;99484.48;109115;1257;65817;-55
2023/12/27 06:30:11;;;;;;;10.20;4.10;;;;;;;8.17;100.00;99489.03;108946;1257;72733;-57
2023/12/27 06:32:39;;;;;;;8.10;4.50;;;;;;;8.17;100.00;99486.44;109119;1256;60157;-55
2023/12/27 06:35:07;;;;;;;7.00;4.60;;;;;;;8.18;100.00;99487.77;109078;1257;58895;-54
2023/12/27 06:37:34;;;;;;;6.80;4.80;;;;;;;8.20;100.00;99490.61;109149;1256;71842;-54
2023/12/27 06:40:08;;;;;;;7.00;4.30;;;;;;;8.23;100.00;99495.51;108974;1256;65866;-57
2023/12/27 06:42:36;;;;;;;6.70;4.30;;;;;;;8.25;100.00;99496.57;109137;1257;71507;-55
2023/12/27 06:45:05;;;;;;;6.10;3.60;;;;;;;8.28;100.00;99492.60;109120;1256;60191;-55
2023/12/27 06:47:32;;;;;;;7.30;4.10;;;;;;;8.30;100.00;99491.53;109126;1256;58966;-55
2023/12/27 06:50:00;;;;;;;7.00;3.80;;;;;;;8.30;100.00;99492.52;109145;1259;70937;-55
2023/12/27 06:52:28;;;;;;;8.30;4.30;;;;;;;8.30;100.00;99498.05;109073;1257;64984;-55
2023/12/27 06:54:55;;;;;;;7.80;4.00;;;;;;;8.32;100.00;99493.71;109127;1257;72871;-55
2023/12/27 06:57:23;;;;;;;6.50;4.00;;;;;;;8.34;100.00;99496.02;109146;1256;61761;-55
2023/12/27 06:59:52;;;;;;;7.10;3.80;;;;;;;8.36;100.00;99496.08;109171;1257;60035;-56
2023/12/27 07:02:19;;;;;;;6.90;4.30;;;;;;;8.40;100.00;99497.96;109128;1259;73913;-54
2023/12/27 07:04:47;;;;;;;6.20;4.00;;;;;;;8.44;100.00;99496.52;109122;1257;67549;-55
2023/12/27 07:07:14;;;;;;;6.50;3.70;;;;;;;8.49;100.00;99499.01;109087;1256;72797;-55
2023/12/27 07:09:42;;;;;;;6.20;3.60;;;;;;;8.55;100.00;99503.52;109120;1256;60443;-54
2023/12/27 07:12:11;;;;;;;8.00;4.10;;;;;;;8.62;100.00;99504.38;109157;1256;60048;-56
2023/12/27 07:14:39;;;;;;;6.90;3.70;;;;;;;8.71;100.00;99500.20;109115;1256;72630;-54
2023/12/27 07:17:07;;;;;;;6.40;4.10;;;;;;;8.86;100.00;99495.58;109106;1257;67796;-54
2023/12/27 07:19:35;;;;;;;7.70;3.80;;;;;;;9.05;100.00;99498.92;109092;1257;72735;-54
2023/12/27 07:22:03;;;;;;;7.60;4.20;;;;;;;9.25;100.00;99498.16;109060;1255;60467;-54
2023/12/27 07:24:30;;;;;;;7.90;4.50;;;;;;;9.41;100.00;99500.92;109176;1257;60094;-55
2023/12/27 07:26:58;;;;;;;6.80;4.30;;;;;;;9.57;100.00;99502.73;109042;1256;72669;-54
2023/12/27 07:29:26;;;;;;;8.30;4.30;;;;;;;9.76;100.00;99495.92;109043;1257;66943;-54
2023/12/27 07:31:53;;;;;;;6.70;3.90;;;;;;;10.08;100.00;99498.18;109111;1257;72685;-54
2023/12/27 07:34:21;;;;;;;6.60;3.40;;;;;;;10.51;100.00;99496.52;109136;1256;60155;-54
2023/12/27 07:36:49;;;;;;;6.10;3.40;;;;;;;11.07;100.00;99500.55;109134;1257;60179;-55
2023/12/27 07:39:17;;;;;;;6.90;3.50;;;;;;;11.66;100.00;99501.13;109107;1256;72514;-55
2023/12/27 07:41:45;;;;;;;6.80;3.30;;;;;;;12.24;100.00;99494.57;109018;1256;65634;-54
2023/12/27 07:44:12;;;;;;;5.90;3.10;;;;;;;12.75;100.00;99490.93;109124;1257;72740;-54
2023/12/27 07:46:40;;;;;;;5.30;2.90;;;;;;;13.12;100.00;99477.81;109096;1257;60120;-55
2023/12/27 07:49:08;;;;;;;4.00;2.40;;;;;;;13.30;100.00;99457.98;109118;1256;60254;-55
2023/12/27 07:51:35;;;;;;;5.50;2.80;;;;;;;13.29;100.00;99448.24;109099;1256;73935;-54
2023/12/27 07:54:03;;;;;;;4.90;2.10;;;;;;;13.12;100.00;99441.30;109184;1257;66969;-55
2023/12/27 07:56:31;;;;;;;4.80;2.00;;;;;;;12.88;100.00;99432.67;109157;1257;72695;-54
2023/12/27 07:58:58;;;;;;;4.50;1.80;;;;;;;12.65;100.00;99428.08;109036;1256;58859;-54
2023/12/27 08:01:30;;;;;;;4.80;2.20;;;;;;;12.53;100.00;99428.35;109163;1256;60105;-54
2023/12/27 08:04:01;;;;;;;3.60;1.80;;;;;;;12.57;100.00;99429.45;109153;1257;72706;-54
2023/12/27 08:06:29;;;;;;;3.90;1.80;;;;;;;12.68;100.00;99425.35;109103;1257;65713;-57
2023/12/27 08:08:57;;;;;;;3.80;1.90;;;;;;;12.76;100.00;99416.46;109114;1256;73283;-55
2023/12/27 08:11:24;;;;;;;4.10;2.00;;;;;;;12.74;100.00;99412.02;108966;1257;58861;-55
2023/12/27 08:13:52;;;;;;;4.20;2.20;;;;;;;12.67;100.00;99410.56;109000;1256;60174;-54
2023/12/27 08:16:19;;;;;;;5.30;2.00;;;;;;;12.56;100.00;99408.30;109127;1256;73893;-55
2023/12/27 08:18:47;;;;;;;3.10;1.60;;;;;;;12.41;100.00;99413.55;109109;1256;65966;-55
2023/12/27 08:21:15;;;;;;;3.80;1.30;;;;;;;12.30;100.00;99416.52;109008;1256;71910;-54
2023/12/27 08:23:43;;;;;;;4.40;1.60;;;;;;;12.29;100.00;99413.65;108972;1256;60158;-55
2023/12/27 08:26:10;;;;;;;4.40;1.80;;;;;;;12.23;100.00;99410.45;109139;1257;58802;-54
2023/12/27 08:28:38;;;;;;;4.10;2.10;;;;;;;12.18;100.00;99405.88;109073;1256;72685;-55
2023/12/27 08:31:06;;;;;;;4.10;1.70;;;;;;;12.05;100.00;99409.64;109074;1256;66220;-54
2023/12/27 08:33:37;;;;;;;4.80;2.00;;;;;;;11.89;100.00;99405.26;109095;1256;71469;-55
2023/12/27 08:36:05;;;;;;;3.50;1.90;;;;;;;11.69;100.00;99404.41;109143;1256;58868;-55
2023/12/27 08:38:32;;;;;;;3.20;1.70;;;;;;;11.49;100.00;99403.60;109132;1256;60109;-54
2023/12/27 08:41:02;;;;;;;2.80;1.40;;;;;;;11.29;100.00;99398.05;109059;1256;72630;-56
2023/12/27 08:43:30;;;;;;;4.10;1.60;;;;;;;11.09;100.00;99395.69;109151;1256;65803;-54
2023/12/27 08:45:58;;;;;;;6.00;1.70;;;;;;;10.92;100.00;99392.73;108974;1256;72041;-54
2023/12/27 08:48:25;;;;;;;4.10;1.60;;;;;;;10.76;100.00;99390.36;109084;1256;60409;-54
2023/12/27 08:50:53;;;;;;;3.10;1.60;;;;;;;10.69;100.00;99386.40;109131;1256;60110;-54
2023/12/27 08:53:21;;;;;;;3.10;1.40;;;;;;;10.72;100.00;99390.00;108995;1256;73952;-54
2023/12/27 08:55:49;;;;;;;4.40;1.70;;;;;;;10.89;100.00;99386.73;109182;1257;67137;-54
2023/12/27 08:58:16;;;;;;;3.70;1.40;;;;;;;11.09;100.00;99383.52;109090;1256;71441;-54
2023/12/27 09:00:44;;;;;;;3.80;1.90;;;;;;;11.28;100.00;99382.80;109055;1256;58873;-56
2023/12/27 09:03:12;;;;;;;5.00;2.10;;;;;;;11.44;100.00;99377.49;109132;1256;61509;-55
2023/12/27 09:05:39;;;;;;;3.70;2.00;;;;;;;11.59;100.00;99373.87;109138;1256;72678;-55
2023/12/27 09:08:07;;;;;;;3.60;2.00;;;;;;;11.68;100.00;99368.67;109178;1256;66678;-54
2023/12/27 09:10:35;;;;;;;3.40;1.50;;;;;;;11.71;100.00;99366.16;109140;1256;72782;-54
2023/12/27 09:13:03;;;;;;;4.60;1.50;;;;;;;11.70;100.00;99360.34;108948;1256;60128;-55
2023/12/27 09:15:31;;;;;;;6.30;2.00;;;;;;;11.72;100.00;99358.88;109097;1256;60002;-54
2023/12/27 09:17:59;;;;;;;2.90;1.30;;;;;;;11.75;100.00;99354.00;109158;1256;73965;-54
2023/12/27 09:20:27;;;;;;;3.20;1.30;;;;;;;11.87;100.00;99352.13;109162;1255;67816;-55
2023/12/27 09:22:55;;;;;;;4.30;1.80;;;;;;;12.08;100.00;99355.84;109113;1256;71453;-56
2023/12/27 09:25:22;;;;;;;4.60;1.70;;;;;;;12.39;100.00;99348.11;109091;1256;58794;-54
2023/12/27 09:27:50;;;;;;;4.00;2.00;;;;;;;12.77;100.00;99346.25;109021;1257;58973;-55
2023/12/27 09:30:18;;;;;;;3.10;1.70;;;;;;;12.95;100.00;99338.27;109160;1257;72697;-56
2023/12/27 09:32:45;;;;;;;3.50;1.80;;;;;;;13.19;100.00;99332.16;109041;1256;69301;-56
2023/12/27 09:35:14;;;;;;;4.30;2.00;;;;;;;13.25;100.00;99320.70;108932;1257;71776;-57
2023/12/27 09:37:41;;;;;;;3.80;1.70;;;;;;;13.12;100.00;99316.23;109136;1256;60123;-55
2023/12/27 09:40:09;;;;;;;3.20;1.40;;;;;;;12.93;100.00;99313.90;109180;1257;60073;-55
2023/12/27 09:42:37;;;;;;;4.10;1.80;;;;;;;12.73;100.00;99315.08;109172;1256;76434;-55
2023/12/27 09:45:06;;;;;;;2.80;1.40;;;;;;;12.54;100.00;99317.52;109084;1256;68863;-55
2023/12/27 09:47:37;;;;;;;2.80;1.10;;;;;;;12.36;100.00;99315.46;108862;1256;72844;-56
2023/12/27 09:50:06;;;;;;;3.20;1.30;;;;;;;12.20;100.00;99312.68;109144;1256;60149;-55
2023/12/27 09:52:34;;;;;;;2.60;1.20;;;;;;;12.08;100.00;99303.88;108905;1256;62535;-54
2023/12/27 09:55:02;;;;;;;3.50;1.30;;;;;;;12.09;100.00;99300.56;108935;1256;73985;-55
2023/12/27 09:57:30;;;;;;;6.10;2.60;;;;;;;12.22;100.00;99301.05;109068;1256;66011;-56
2023/12/27 09:59:57;;;;;;;5.90;3.90;;;;;;;12.28;100.00;99303.20;109078;1256;71509;-55
2023/12/27 10:02:28;;;;;;;6.50;4.30;;;;;;;12.16;100.00;99299.78;109072;1256;60135;-55
2023/12/27 10:05:02;;;;;;;7.60;3.80;;;;;;;11.96;100.00;99300.02;109010;1257;62274;-54
2023/12/27 10:07:30;;;;;;;8.90;4.20;;;;;;;11.75;100.00;99300.34;109066;1256;76469;-54
2023/12/27 10:09:58;;;;;;;6.90;3.80;;;;;;;11.65;100.00;99304.95;109040;1256;69472;-54
2023/12/27 10:12:43;;;;;;;5.30;3.30;;;;;;;11.66;100.00;99309.20;109056;1256;73779;-54
2023/12/27 10:15:12;;;;;;;5.80;3.30;;;;;;;11.61;100.00;99304.54;108952;1256;61143;-54
2023/12/27 10:17:42;;;;;;;5.70;3.10;;;;;;;11.53;100.00;99306.69;109172;1256;62209;-55
2023/12/27 10:20:11;;;;;;;5.90;3.10;;;;;;;11.51;100.00;99304.06;109110;1256;73895;-54
2023/12/27 10:22:39;;;;;;;5.60;3.00;;;;;;;11.64;100.00;99308.94;108996;1256;67593;-56
2023/12/27 10:25:07;;;;;;;5.60;2.90;;;;;;;11.95;100.00;99311.68;108932;1257;71453;-57
2023/12/27 10:27:35;;;;;;;4.60;2.50;;;;;;;12.21;100.00;99302.34;109174;1255;58856;-55
2023/12/27 10:30:03;;;;;;;7.00;2.90;;;;;;;12.35;100.00;99296.82;108936;1256;61539;-54
2023/12/27 10:32:31;;;;;;;4.80;1.90;;;;;;;12.30;100.00;99292.80;109198;1256;72543;-55
2023/12/27 10:34:59;;;;;;;2.80;1.60;;;;;;;12.13;100.00;99290.17;108969;1256;68905;-56
2023/12/27 10:37:27;;;;;;;5.20;2.40;;;;;;;11.87;100.00;99283.38;109007;1256;75724;-55
2023/12/27 10:39:55;;;;;;;4.10;1.90;;;;;;;11.62;100.00;99278.69;109146;1256;60135;-55
2023/12/27 10:42:28;;;;;;;4.10;1.90;;;;;;;11.39;100.00;99279.02;109031;1256;62362;-54
2023/12/27 10:44:55;;;;;;;4.50;2.10;;;;;;;11.32;100.00;99276.48;108882;1258;74920;-57
2023/12/27 10:47:23;;;;;;;4.90;1.80;;;;;;;11.44;100.00;99280.73;109085;1256;71205;-54
2023/12/27 10:49:52;;;;;;;3.90;1.40;;;;;;;11.72;100.00;99277.91;109013;1255;73734;-54
2023/12/27 10:52:19;;;;;;;3.10;1.20;;;;;;;12.05;100.00;99267.30;108965;1257;60212;-54
2023/12/27 10:54:50;;;;;;;2.50;1.10;;;;;;;12.27;100.00;99267.11;109132;1256;58812;-57
2023/12/27 10:57:21;;;;;;;2.50;1.10;;;;;;;12.27;100.00;99258.91;108970;1256;73643;-54
2023/12/27 10:59:49;;;;;;;;;;;;;;;12.08;100.00;99245.52;109184;1256;68816;-54
2023/12/27 11:02:18;;;;;;;2.60;1.20;;;;;;;11.76;100.00;99246.75;108994;1256;72677;-54
2023/12/27 11:04:45;;;;;;;3.60;1.50;;;;;;;11.47;100.00;99252.73;108965;1256;59295;-56
2023/12/27 11:07:13;;;;;;;2.00;0.90;;;;;;;11.35;100.00;99261.34;108926;1256;60093;-55
2023/12/27 11:09:41;;;;;;;3.60;1.00;;;;;;;11.33;100.00;99261.02;108934;1256;73862;-56
2023/12/27 11:12:09;;;;;;;2.20;1.10;;;;;;;11.39;100.00;99260.06;109024;1256;67848;-55
2023/12/27 11:14:37;;;;;;;2.60;1.20;;;;;;;11.40;100.00;99262.38;108900;1256;75604;-54
2023/12/27 11:17:05;;;;;;;2.60;1.00;;;;;;;11.34;100.00;99266.21;109086;1256;62970;-54
2023/12/27 11:19:34;;;;;;;1.80;0.90;;;;;;;11.23;100.00;99267.41;109184;1255;59110;-54
2023/12/27 11:22:02;;;;;;;4.50;1.30;;;;;;;11.06;100.00;99268.84;108960;1256;74869;-54
2023/12/27 11:24:29;;;;;;;2.30;0.80;;;;;;;10.82;100.00;99261.36;109011;1256;66946;-54
2023/12/27 11:27:00;;;;;;;2.70;1.10;;;;;;;10.55;100.00;99261.48;108921;1256;74889;-56
2023/12/27 11:29:31;;;;;;;;;;;;;;;10.31;100.00;99263.41;109155;1256;60145;-54
2023/12/27 11:31:59;;;;;;;3.00;1.20;;;;;;;10.10;100.00;99271.33;109018;1256;61952;-54
2023/12/27 11:34:27;;;;;;;3.00;1.20;;;;;;;9.94;100.00;99277.88;109118;1256;72625;-54
2023/12/27 11:36:55;;;;;;;3.30;1.00;;;;;;;9.78;100.00;99280.98;109141;1255;67823;-53
2023/12/27 11:39:28;;;;;;;2.80;1.00;;;;;;;9.63;100.00;99276.18;108999;1257;75749;-53